Time;durP1;ratioP1;P1;durP2;ratioP2;P2;SDS_P1;SDS_P2;PMS_P1;PMS_P2;Temp;Humidity;BMP_temperature;BMP_pressure;BME280_temperature;BME280_humidity;BME280_pressure;Samples;Min_cycle;Max_cycle;Signal;HPM_P1;HPM_P2
2022/04/08 00:02:41;;;;;;;4.75;1.52;;;;;;;4.75;71.91;98027.56;8598506;33;20373;-76
2022/04/08 00:07:44;;;;;;;6.95;2.00;;;;;;;4.70;72.89;98032.47;8601786;33;20247;-75
2022/04/08 00:12:47;;;;;;;2.28;1.88;;;;;;;4.30;75.30;98061.94;8596918;33;20604;-74
2022/04/08 00:17:52;;;;;;;4.03;1.80;;;;;;;4.40;75.04;98092.00;8597380;33;20489;-75
2022/04/08 00:22:55;;;;;;;2.90;1.88;;;;;;;4.49;75.57;98117.72;8597516;33;20544;-75
2022/04/08 00:27:58;;;;;;;2.65;1.73;;;;;;;4.14;76.62;98083.75;8597020;33;21927;-74
2022/04/08 00:33:03;;;;;;;3.97;1.98;;;;;;;3.97;78.77;98103.03;8601991;33;20418;-75
2022/04/08 00:38:07;;;;;;;6.15;2.10;;;;;;;4.39;77.32;98114.25;8589333;33;20251;-75
2022/04/08 00:43:13;;;;;;;5.13;2.35;;;;;;;4.16;76.52;98135.75;8601464;33;20238;-76
2022/04/08 00:48:18;;;;;;;5.60;2.63;;;;;;;4.40;76.63;98146.00;8599103;33;20416;-75
2022/04/08 00:53:21;;;;;;;4.88;1.90;;;;;;;3.89;80.65;98167.47;8602414;33;20291;-75
2022/04/08 00:58:26;;;;;;;4.03;2.22;;;;;;;4.05;82.27;98159.81;8623279;33;20431;-75
2022/04/08 01:03:30;;;;;;;3.65;2.20;;;;;;;3.98;82.14;98165.78;8599401;33;20522;-76
2022/04/08 01:08:35;;;;;;;2.95;2.38;;;;;;;3.88;83.13;98190.53;8599379;33;20436;-76
2022/04/08 01:13:38;;;;;;;2.15;1.77;;;;;;;3.59;86.61;98198.38;8600160;33;20242;-76
2022/04/08 01:18:42;;;;;;;5.07;2.22;;;;;;;3.50;88.50;98209.81;8599108;33;20612;-77
2022/04/08 01:23:48;;;;;;;2.63;1.88;;;;;;;3.28;90.22;98214.28;8604482;33;21202;-76
2022/04/08 01:28:54;;;;;;;4.07;2.35;;;;;;;3.21;91.19;98222.91;8603679;33;20503;-78
2022/04/08 01:33:57;;;;;;;14.82;3.00;;;;;;;2.79;93.32;98260.00;8603142;33;20201;-77
2022/04/08 01:39:00;;;;;;;10.80;2.95;;;;;;;2.94;96.57;98271.19;8598398;33;20155;-76
2022/04/08 01:44:05;;;;;;;3.55;2.35;;;;;;;2.74;96.92;98289.56;8599151;33;21862;-77
2022/04/08 01:49:08;;;;;;;3.45;2.40;;;;;;;2.90;95.64;98296.25;8603406;33;20151;-77
2022/04/08 01:54:11;;;;;;;3.75;1.83;;;;;;;2.77;94.48;98299.94;8604807;33;20222;-77
2022/04/08 01:59:16;;;;;;;3.40;1.55;;;;;;;2.74;94.30;98316.09;8601219;33;20191;-77
2022/04/08 02:04:18;;;;;;;3.70;1.70;;;;;;;2.53;94.02;98323.09;8602857;33;20401;-77
2022/04/08 02:09:22;;;;;;;1.92;1.70;;;;;;;2.53;93.93;98337.22;8603761;33;20406;-78
2022/04/08 02:14:26;;;;;;;6.40;1.67;;;;;;;2.64;94.23;98341.66;8602505;33;20197;-77
2022/04/08 02:19:29;;;;;;;4.18;1.50;;;;;;;2.65;94.47;98345.13;8599379;33;20541;-77
2022/04/08 02:24:34;;;;;;;2.13;1.35;;;;;;;2.40;94.60;98358.50;8600064;33;20404;-77
2022/04/08 02:29:38;;;;;;;5.82;3.25;;;;;;;2.58;95.30;98376.59;8599129;33;20238;-78
2022/04/08 02:34:41;;;;;;;2.00;1.67;;;;;;;2.59;95.72;98384.41;8601990;33;20233;-78
2022/04/08 02:39:44;;;;;;;3.20;1.60;;;;;;;2.18;95.21;98395.59;8600096;33;20444;-78
2022/04/08 02:44:49;;;;;;;2.33;2.13;;;;;;;2.30;94.51;98399.09;8604133;33;21324;-77
2022/04/08 02:49:52;;;;;;;2.83;2.00;;;;;;;2.45;94.45;98428.84;8603698;33;20245;-78
2022/04/08 02:54:55;;;;;;;4.13;1.70;;;;;;;2.66;93.40;98424.56;8603361;33;20151;-78
2022/04/08 03:00:00;;;;;;;2.72;1.73;;;;;;;2.50;93.17;98439.94;8599242;33;20452;-77
2022/04/08 03:05:06;;;;;;;1.50;1.40;;;;;;;2.48;92.70;98455.94;8597702;33;20419;-78
2022/04/08 03:10:11;;;;;;;2.17;1.27;;;;;;;2.29;93.93;98453.88;8578637;33;20166;-78
2022/04/08 03:15:15;;;;;;;2.95;1.85;;;;;;;2.34;93.22;98454.38;8589806;33;20421;-78
2022/04/08 03:20:19;;;;;;;2.08;1.80;;;;;;;2.27;94.30;98471.69;8589533;33;20951;-78
2022/04/08 03:25:22;;;;;;;1.70;1.60;;;;;;;1.92;93.87;98461.16;8588145;33;20140;-77
2022/04/08 03:30:27;;;;;;;1.70;1.60;;;;;;;2.05;93.05;98477.81;8588453;33;20187;-77
2022/04/08 03:35:31;;;;;;;2.00;1.65;;;;;;;2.42;91.73;98500.66;8589868;33;20415;-78
2022/04/08 03:40:35;;;;;;;2.75;1.50;;;;;;;2.56;90.08;98484.53;8590414;33;20681;-78
2022/04/08 03:45:39;;;;;;;2.83;1.45;;;;;;;2.44;89.38;98494.28;8594187;33;20171;-78
2022/04/08 03:50:42;;;;;;;1.50;1.40;;;;;;;2.24;90.35;98511.69;8596892;33;20469;-77
2022/04/08 03:55:45;;;;;;;4.40;2.05;;;;;;;2.51;87.74;98508.72;8600935;33;20432;-78
2022/04/08 04:00:50;;;;;;;1.33;1.23;;;;;;;2.30;86.18;98518.31;8611555;33;20545;-78
2022/04/08 04:05:53;;;;;;;1.35;1.08;;;;;;;2.27;85.14;98545.88;8614068;33;20567;-77
2022/04/08 04:18:04;;;;;;;3.38;1.42;;;;;;;2.16;82.69;98575.00;8601287;33;20969;-78
2022/04/08 04:23:07;;;;;;;4.22;2.13;;;;;;;1.85;82.43;98581.72;8601466;33;20470;-77
2022/04/08 04:28:10;;;;;;;2.13;1.50;;;;;;;1.74;83.40;98590.47;8599891;33;20158;-77
2022/04/08 04:33:14;;;;;;;2.97;1.30;;;;;;;1.94;84.17;98603.06;8595408;33;21050;-78
2022/04/08 04:38:17;;;;;;;3.47;1.87;;;;;;;2.13;84.14;98612.31;8594420;33;20450;-78
2022/04/08 04:43:20;;;;;;;2.70;2.05;;;;;;;2.06;84.95;98622.53;8598906;33;20413;-77
2022/04/08 04:48:25;;;;;;;2.38;1.40;;;;;;;1.66;86.00;98629.88;8609567;33;20429;-77
2022/04/08 04:53:28;;;;;;;2.85;2.00;;;;;;;2.15;85.12;98636.88;8600850;33;20486;-78
2022/04/08 04:58:30;;;;;;;6.68;2.50;;;;;;;1.80;86.34;98644.75;8593888;33;20258;-76
2022/04/08 05:03:35;;;;;;;4.78;1.95;;;;;;;2.34;84.65;98649.63;8591455;33;20883;-77
2022/04/08 05:08:38;;;;;;;3.37;1.60;;;;;;;1.97;85.65;98651.47;8593683;33;20135;-76
2022/04/08 05:13:41;;;;;;;3.73;2.33;;;;;;;2.24;84.64;98657.38;8593697;33;20179;-77
2022/04/08 05:18:45;;;;;;;6.30;3.13;;;;;;;1.92;85.29;98670.34;8593623;33;20572;-77
2022/04/08 05:23:48;;;;;;;4.40;2.23;;;;;;;2.24;84.71;98661.84;8610807;33;20468;-77
2022/04/08 05:28:51;;;;;;;4.78;2.47;;;;;;;2.39;83.54;98660.72;8586384;33;20539;-78
2022/04/08 05:33:55;;;;;;;4.65;1.60;;;;;;;2.21;83.84;98684.13;8590057;33;20220;-77
2022/04/08 05:38:58;;;;;;;5.63;1.85;;;;;;;2.26;82.63;98687.28;8600759;33;20407;-76
2022/04/08 05:44:01;;;;;;;4.18;2.00;;;;;;;2.37;82.42;98692.63;8605646;33;20473;-77
2022/04/08 05:49:06;;;;;;;4.43;1.73;;;;;;;2.16;82.26;98688.91;8609043;33;20403;-78
2022/04/08 05:54:09;;;;;;;3.20;1.57;;;;;;;2.20;82.25;98682.44;8600219;33;20424;-76
2022/04/08 05:59:11;;;;;;;4.93;2.30;;;;;;;2.30;81.64;98699.31;8598924;33;20350;-78
2022/04/08 06:04:16;;;;;;;5.35;1.90;;;;;;;2.44;81.09;98695.69;8598072;33;20474;-76
2022/04/08 06:09:19;;;;;;;14.68;2.25;;;;;;;2.30;81.17;98691.38;8620660;33;20236;-76
2022/04/08 06:14:22;;;;;;;4.38;2.72;;;;;;;2.24;80.88;98697.13;8596916;33;20152;-77
2022/04/08 06:19:26;;;;;;;3.10;2.22;;;;;;;2.51;79.90;98710.16;8596766;33;20135;-77
2022/04/08 06:24:29;;;;;;;12.13;3.30;;;;;;;2.80;79.69;98704.53;8597037;33;20187;-77
2022/04/08 06:29:32;;;;;;;7.88;3.03;;;;;;;2.50;79.44;98726.19;8595752;33;20632;-75
2022/04/08 06:34:36;;;;;;;5.53;2.88;;;;;;;2.69;78.70;98702.66;8599950;33;20163;-76
2022/04/08 06:39:39;;;;;;;7.50;4.68;;;;;;;2.74;78.11;98707.59;8601930;33;20513;-75
2022/04/08 06:44:42;;;;;;;9.55;2.45;;;;;;;2.96;78.42;98715.66;8602011;33;20596;-75
2022/04/08 06:49:46;;;;;;;4.20;2.08;;;;;;;2.64;78.12;98726.03;8603292;33;20838;-76
2022/04/08 06:54:49;;;;;;;9.85;2.47;;;;;;;3.03;77.97;98710.72;8603635;33;20931;-75
2022/04/08 06:59:52;;;;;;;7.22;2.55;;;;;;;3.28;77.63;98717.63;8603383;33;21217;-76
2022/04/08 07:04:57;;;;;;;6.03;2.67;;;;;;;3.42;75.43;98708.59;8602013;33;20403;-76
2022/04/08 07:10:00;;;;;;;4.85;2.13;;;;;;;3.81;76.21;98717.03;8552526;33;20849;-76
2022/04/08 07:15:04;;;;;;;4.30;2.67;;;;;;;3.61;76.21;98708.00;8543928;33;20463;-76
2022/04/08 07:20:10;;;;;;;8.02;2.17;;;;;;;4.02;74.23;98704.69;8537844;33;20599;-77
2022/04/08 07:25:14;;;;;;;7.05;2.38;;;;;;;4.27;73.80;98700.06;8534114;33;20942;-76
2022/04/08 07:30:21;;;;;;;7.10;2.63;;;;;;;3.82;74.03;98730.22;8532790;33;20450;-77
2022/04/08 07:35:26;;;;;;;10.98;3.25;;;;;;;4.37;74.34;98703.66;8537149;33;20184;-77
2022/04/08 07:40:29;;;;;;;7.10;3.47;;;;;;;4.12;73.23;98726.91;8555090;33;20870;-76
2022/04/08 07:45:32;;;;;;;8.38;3.20;;;;;;;4.38;73.17;98723.94;8561744;33;21927;-76
2022/04/08 07:50:37;;;;;;;11.00;3.72;;;;;;;4.10;74.07;98715.56;8585839;33;20948;-76
2022/04/08 07:55:40;;;;;;;5.28;3.05;;;;;;;4.39;70.38;98723.81;8589076;33;20512;-77
2022/04/08 08:00:44;;;;;;;6.30;3.38;;;;;;;4.63;71.63;98698.81;8591118;33;20414;-76
2022/04/08 08:05:51;;;;;;;5.75;3.45;;;;;;;4.16;71.73;98709.72;8588226;33;20194;-76
2022/04/08 08:10:55;;;;;;;4.68;3.10;;;;;;;4.70;70.38;98721.28;8589696;33;20243;-76
2022/04/08 08:15:58;;;;;;;6.32;2.83;;;;;;;4.34;69.31;98710.06;8589562;33;20408;-76
2022/04/08 08:21:03;;;;;;;4.82;3.08;;;;;;;5.33;67.88;98724.00;8591067;33;20557;-76
2022/04/08 08:26:06;;;;;;;8.77;3.53;;;;;;;5.63;68.54;98709.88;8592706;33;21109;-77
2022/04/08 08:31:11;;;;;;;12.82;3.65;;;;;;;5.66;65.69;98716.75;8594691;33;20634;-77
2022/04/08 08:36:15;;;;;;;5.82;3.72;;;;;;;6.03;65.18;98701.00;8599779;33;20789;-76
2022/04/08 08:41:20;;;;;;;4.35;3.03;;;;;;;5.75;64.53;98710.59;8597070;33;20430;-76
2022/04/08 08:46:23;;;;;;;8.13;2.85;;;;;;;5.50;64.34;98693.25;8591990;33;20265;-77
2022/04/08 08:51:29;;;;;;;5.20;2.83;;;;;;;5.60;61.57;98694.16;8594248;33;20489;-77
2022/04/08 08:56:32;;;;;;;4.13;2.75;;;;;;;5.68;63.27;98686.34;8591174;33;20417;-77
2022/04/08 09:01:35;;;;;;;4.65;2.08;;;;;;;5.51;61.70;98702.94;8589871;33;20936;-77
2022/04/08 09:06:42;;;;;;;3.30;1.83;;;;;;;5.89;59.93;98686.25;8598003;33;20181;-76
2022/04/08 09:11:45;;;;;;;4.20;2.13;;;;;;;6.06;58.91;98683.91;8615504;33;20408;-76
2022/04/08 09:16:48;;;;;;;4.70;1.80;;;;;;;5.67;58.47;98684.63;8602038;33;20581;-76
2022/04/08 09:21:54;;;;;;;5.55;2.10;;;;;;;6.47;59.20;98682.84;8600911;33;20267;-76
2022/04/08 09:26:57;;;;;;;5.03;2.65;;;;;;;6.14;59.24;98687.59;8598836;33;20697;-76
2022/04/08 09:32:02;;;;;;;5.07;2.30;;;;;;;6.71;58.97;98685.09;8595209;33;20608;-74
2022/04/08 09:37:12;;;;;;;4.22;2.22;;;;;;;6.46;56.64;98685.66;8598802;33;20441;-74
2022/04/08 09:42:15;;;;;;;3.38;2.50;;;;;;;6.57;55.32;98669.50;8603680;33;20159;-75
2022/04/08 09:47:18;;;;;;;2.97;1.73;;;;;;;6.99;55.39;98667.41;8601742;33;20193;-76
2022/04/08 09:52:23;;;;;;;4.35;1.50;;;;;;;6.38;53.30;98660.53;8603711;33;20192;-75
2022/04/08 09:57:31;;;;;;;4.82;2.10;;;;;;;7.13;49.59;98626.06;8606208;33;20248;-74
2022/04/08 10:02:40;;;;;;;5.60;2.28;;;;;;;7.07;51.01;98634.63;8604678;33;20182;-75
2022/04/08 10:07:48;;;;;;;3.63;2.00;;;;;;;7.02;52.92;98627.09;8604538;33;20958;-74
2022/04/08 10:13:33;;;;;;;5.25;1.83;;;;;;;6.85;51.42;98633.94;8605068;33;20531;-74
2022/04/08 10:18:39;;;;;;;5.25;2.35;;;;;;;7.19;50.40;98636.16;8604799;33;20201;-75
2022/04/08 10:23:52;;;;;;;5.28;2.42;;;;;;;7.26;52.33;98623.06;8618604;33;20204;-75
2022/04/08 10:28:56;;;;;;;5.65;2.83;;;;;;;7.20;50.59;98634.34;8618855;33;21185;-75
2022/04/08 10:34:01;;;;;;;6.20;2.10;;;;;;;6.90;49.80;98633.56;8619128;33;20408;-74
2022/04/08 10:39:17;;;;;;;5.07;2.60;;;;;;;7.20;51.68;98624.50;8619032;33;20425;-74
2022/04/08 10:44:34;;;;;;;5.75;2.10;;;;;;;6.67;51.35;98619.66;8618478;33;20585;-75
2022/04/08 10:49:50;;;;;;;4.43;2.70;;;;;;;7.43;51.86;98602.75;8627684;33;20182;-74
2022/04/08 10:55:07;;;;;;;2.78;2.45;;;;;;;7.64;51.24;98602.50;8614271;33;20416;-75
2022/04/08 11:00:13;;;;;;;3.28;2.78;;;;;;;7.37;49.84;98600.69;8606805;33;21120;-74
2022/04/08 11:05:16;;;;;;;2.60;1.70;;;;;;;7.22;48.85;98597.66;8603685;33;20143;-75
2022/04/08 11:10:23;;;;;;;2.05;1.83;;;;;;;7.18;51.32;98604.25;8603923;33;20911;-75
2022/04/08 11:15:28;;;;;;;1.90;1.63;;;;;;;6.85;48.64;98595.75;8598991;33;20929;-75
2022/04/08 11:20:31;;;;;;;2.15;1.77;;;;;;;7.10;47.84;98588.97;8596554;33;20566;-74
2022/04/08 11:25:36;;;;;;;4.05;2.35;;;;;;;7.14;46.79;98592.19;8595706;33;20502;-74
2022/04/08 11:30:40;;;;;;;4.30;2.15;;;;;;;7.40;48.59;98603.03;8596443;33;20436;-74
2022/04/08 11:35:45;;;;;;;2.20;2.00;;;;;;;7.03;49.34;98591.38;8596732;33;20534;-74
2022/04/08 11:40:50;;;;;;;4.95;2.50;;;;;;;7.57;49.85;98591.59;8592577;33;20186;-75
2022/04/08 11:45:53;;;;;;;2.90;2.13;;;;;;;7.10;47.50;98594.31;8594793;33;22158;-74
2022/04/08 11:51:05;;;;;;;2.35;1.50;;;;;;;6.42;48.57;98582.91;8595836;33;20395;-74
2022/04/08 11:56:10;;;;;;;2.28;2.15;;;;;;;6.76;48.97;98580.59;8594651;33;20406;-74
2022/04/08 12:01:14;;;;;;;4.32;2.40;;;;;;;6.98;48.99;98582.13;8595451;33;20668;-74
2022/04/08 12:06:18;;;;;;;3.28;2.40;;;;;;;7.68;48.87;98575.34;8595449;33;20636;-75
2022/04/08 12:11:23;;;;;;;3.05;1.98;;;;;;;7.25;46.98;98555.47;8596050;33;20182;-74
2022/04/08 12:16:30;;;;;;;4.03;2.33;;;;;;;7.30;46.14;98556.88;8594561;33;20424;-75
2022/04/08 12:21:34;;;;;;;3.00;2.10;;;;;;;7.82;45.55;98552.63;8592797;33;20404;-74
2022/04/08 12:26:39;;;;;;;2.47;1.88;;;;;;;7.84;46.18;98526.56;8590852;33;20199;-74
2022/04/08 12:31:47;;;;;;;5.25;2.75;;;;;;;7.87;47.20;98522.75;8588801;33;20490;-74
2022/04/08 12:36:51;;;;;;;3.85;2.30;;;;;;;7.77;45.87;98517.47;8600016;33;20451;-75
2022/04/08 12:42:00;;;;;;;2.50;2.20;;;;;;;7.63;46.32;98518.84;8624019;32;21908;-75
2022/04/08 12:47:04;;;;;;;2.33;2.10;;;;;;;7.40;44.89;98523.75;8589135;33;20545;-74
2022/04/08 12:52:07;;;;;;;4.45;2.42;;;;;;;7.31;47.40;98524.66;8605078;33;20945;-75
2022/04/08 12:57:12;;;;;;;2.92;2.25;;;;;;;7.72;45.51;98501.06;8598754;33;20970;-75
2022/04/08 13:02:16;;;;;;;2.72;1.88;;;;;;;7.42;46.27;98489.72;8583910;33;20234;-76
2022/04/08 13:07:19;;;;;;;2.83;2.10;;;;;;;7.22;45.13;98483.66;8602060;33;20447;-75
2022/04/08 13:12:24;;;;;;;3.67;2.45;;;;;;;7.39;45.06;98495.38;8603701;33;20457;-74
2022/04/08 13:17:27;;;;;;;4.72;2.20;;;;;;;7.49;45.09;98485.47;8602146;33;20218;-75
2022/04/08 13:22:30;;;;;;;2.35;2.15;;;;;;;7.67;46.77;98488.13;8611733;33;20187;-75
2022/04/08 13:27:34;;;;;;;4.28;2.15;;;;;;;7.32;45.82;98482.75;8607560;33;20172;-75
2022/04/08 13:32:38;;;;;;;2.85;2.60;;;;;;;7.49;47.27;98492.66;8604442;33;20424;-75
2022/04/08 13:37:42;;;;;;;5.68;3.13;;;;;;;7.37;47.70;98493.84;8603376;33;20202;-75
2022/04/08 13:42:46;;;;;;;6.75;2.90;;;;;;;7.62;46.87;98494.94;8603707;33;20212;-75
2022/04/08 13:47:50;;;;;;;3.25;2.53;;;;;;;7.56;46.07;98491.03;8603126;33;20151;-75
2022/04/08 13:52:53;;;;;;;3.40;2.70;;;;;;;7.31;47.64;98484.59;8604347;33;20446;-75
2022/04/08 13:57:59;;;;;;;2.13;1.90;;;;;;;7.23;46.45;98482.66;8609677;33;20520;-75
2022/04/08 14:03:02;;;;;;;2.80;2.60;;;;;;;7.30;48.23;98474.06;8614977;33;20131;-74
2022/04/08 14:08:08;;;;;;;4.85;3.47;;;;;;;7.86;47.52;98472.97;8617410;33;20453;-75
2022/04/08 14:13:13;;;;;;;4.38;3.53;;;;;;;7.39;48.70;98473.16;8619082;33;21074;-75
2022/04/08 14:18:16;;;;;;;4.22;3.60;;;;;;;7.81;48.22;98467.22;8616721;33;20273;-75
2022/04/08 14:23:20;;;;;;;4.15;3.40;;;;;;;8.25;46.99;98467.25;8623508;33;20635;-75
2022/04/08 14:28:24;;;;;;;5.20;2.80;;;;;;;7.22;47.27;98454.28;8624387;33;20182;-75
2022/04/08 14:33:27;;;;;;;7.07;3.50;;;;;;;7.56;48.16;98463.47;8623261;33;20475;-75
2022/04/08 14:38:31;;;;;;;4.97;3.22;;;;;;;7.49;47.67;98468.59;8618227;33;20421;-74
2022/04/08 14:43:35;;;;;;;6.80;3.88;;;;;;;7.34;47.68;98473.59;8617290;33;20177;-75
2022/04/08 14:48:38;;;;;;;3.22;2.65;;;;;;;7.15;47.41;98484.41;8612111;33;21108;-75
2022/04/08 14:53:42;;;;;;;7.75;3.67;;;;;;;7.56;48.13;98475.00;8604694;33;20776;-75
2022/04/08 14:58:47;;;;;;;4.80;3.80;;;;;;;8.13;47.91;98472.84;8612319;33;20426;-75
2022/04/08 15:03:51;;;;;;;3.97;3.17;;;;;;;7.86;46.79;98484.47;8603718;33;20672;-75
2022/04/08 15:08:54;;;;;;;5.65;3.22;;;;;;;8.15;46.49;98478.88;8602591;33;21884;-75
2022/04/08 15:13:59;;;;;;;3.95;3.45;;;;;;;8.13;45.79;98472.00;8602850;33;20408;-75
2022/04/08 15:19:02;;;;;;;6.50;2.80;;;;;;;8.51;44.59;98480.69;8601145;33;20193;-74
2022/04/08 15:24:06;;;;;;;6.43;3.88;;;;;;;8.73;44.76;98465.94;8600291;33;20179;-75
2022/04/08 15:29:10;;;;;;;4.03;2.92;;;;;;;8.22;43.99;98473.75;8602164;33;20460;-76
2022/04/08 15:34:14;;;;;;;6.00;3.05;;;;;;;7.64;47.45;98475.09;8597944;33;20256;-75
2022/04/08 15:39:18;;;;;;;4.25;2.92;;;;;;;7.90;45.93;98490.38;8595337;33;20546;-75
2022/04/08 15:44:22;;;;;;;3.60;2.83;;;;;;;7.79;45.70;98463.84;8599293;33;20179;-75
2022/04/08 15:49:25;;;;;;;3.35;3.05;;;;;;;7.91;44.15;98468.81;8595041;33;20430;-76
2022/04/08 15:54:28;;;;;;;8.77;3.10;;;;;;;7.98;44.18;98469.06;8598857;33;20979;-76
2022/04/08 15:59:33;;;;;;;6.90;4.40;;;;;;;8.40;44.51;98461.19;8608541;33;20451;-76
2022/04/08 16:04:36;;;;;;;4.22;3.38;;;;;;;8.54;44.28;98475.00;8595976;33;20418;-76
2022/04/08 16:09:39;;;;;;;2.80;2.60;;;;;;;8.22;43.90;98462.22;8599327;33;21051;-76
2022/04/08 16:14:44;;;;;;;4.55;3.60;;;;;;;8.40;45.33;98479.06;8600698;33;20420;-77
2022/04/08 16:19:47;;;;;;;3.55;3.10;;;;;;;8.47;44.60;98474.78;8598330;33;20210;-76
2022/04/08 16:24:50;;;;;;;4.05;2.53;;;;;;;8.12;45.32;98473.03;8599211;33;20163;-76
2022/04/08 16:29:55;;;;;;;5.05;3.40;;;;;;;7.52;47.27;98478.16;8597047;33;20147;-75
2022/04/08 16:34:58;;;;;;;4.03;2.45;;;;;;;6.73;48.15;98483.00;8597430;33;20978;-76
2022/04/08 16:40:01;;;;;;;7.78;5.40;;;;;;;7.33;47.82;98481.78;8600751;33;20467;-76
2022/04/08 16:45:07;;;;;;;5.20;3.85;;;;;;;7.28;48.27;98501.75;8601508;33;20444;-76
2022/04/08 16:50:11;;;;;;;4.50;3.95;;;;;;;7.39;47.66;98495.38;8601941;33;20166;-76
2022/04/08 16:55:15;;;;;;;8.30;4.28;;;;;;;7.48;48.13;98504.31;8592528;33;21942;-74
2022/04/08 17:00:20;;;;;;;4.88;4.22;;;;;;;6.90;49.03;98505.44;8594980;33;21237;-75
2022/04/08 17:05:23;;;;;;;6.32;4.47;;;;;;;6.95;49.14;98518.38;8594832;33;20610;-75
2022/04/08 17:10:26;;;;;;;5.70;4.00;;;;;;;6.96;49.76;98504.84;8602456;33;20191;-75
2022/04/08 17:15:30;;;;;;;4.75;3.80;;;;;;;6.88;50.33;98506.59;8598115;33;20183;-75
2022/04/08 17:20:33;;;;;;;4.00;3.22;;;;;;;6.42;51.51;98516.22;8621264;32;20480;-75
2022/04/08 17:25:36;;;;;;;9.07;4.45;;;;;;;6.29;52.48;98512.03;8620438;32;20451;-75
2022/04/08 17:30:41;;;;;;;6.65;4.20;;;;;;;6.37;52.41;98525.50;8644749;32;20486;-74
2022/04/08 17:35:45;;;;;;;4.88;4.07;;;;;;;6.39;52.77;98514.72;8636398;32;20686;-75
2022/04/08 17:40:54;;;;;;;4.30;3.67;;;;;;;6.05;53.60;98519.63;8630011;33;20702;-75
2022/04/08 17:45:58;;;;;;;5.82;3.67;;;;;;;5.91;54.26;98513.75;8615293;33;20139;-74
2022/04/08 17:51:01;;;;;;;6.97;4.88;;;;;;;6.24;53.99;98519.63;8619152;33;20428;-73
2022/04/08 17:56:08;;;;;;;5.85;4.63;;;;;;;6.39;53.98;98531.53;8622518;33;20484;-74
2022/04/08 18:01:12;;;;;;;6.97;5.00;;;;;;;5.93;55.28;98532.28;8624533;33;20143;-74
2022/04/08 18:06:16;;;;;;;9.77;5.32;;;;;;;5.38;68.18;98551.41;8625530;33;20357;-76
2022/04/08 18:11:19;;;;;;;11.02;6.10;;;;;;;4.79;76.43;98546.78;8625314;33;20220;-76
2022/04/08 18:16:27;;;;;;;9.52;6.72;;;;;;;4.83;80.10;98542.88;8623325;33;20274;-76
2022/04/08 18:21:31;;;;;;;9.73;6.95;;;;;;;4.84;82.19;98541.91;8619870;33;20430;-77
2022/04/08 18:26:34;;;;;;;8.85;6.65;;;;;;;4.77;81.94;98546.06;8617637;33;20250;-77
2022/04/08 18:31:39;;;;;;;8.48;6.43;;;;;;;4.64;82.73;98553.44;8616365;33;20195;-76
2022/04/08 18:36:42;;;;;;;12.88;8.02;;;;;;;4.44;80.84;98550.63;8605859;33;21266;-77
2022/04/08 18:41:46;;;;;;;17.10;8.82;;;;;;;3.94;78.85;98572.47;8603159;33;21107;-77
2022/04/08 18:46:52;;;;;;;10.75;8.73;;;;;;;4.37;76.30;98568.91;8613899;32;20628;-76
2022/04/08 18:51:55;;;;;;;14.50;8.10;;;;;;;4.61;76.48;98566.00;8627072;32;21043;-77
2022/04/08 18:56:58;;;;;;;15.18;9.70;;;;;;;4.73;75.98;98580.06;8663163;32;20428;-76
2022/04/08 19:02:04;;;;;;;11.43;7.95;;;;;;;4.72;75.54;98580.22;8662080;32;20424;-76
2022/04/08 19:07:08;;;;;;;15.52;9.30;;;;;;;4.43;75.21;98582.66;8660627;32;20154;-76
2022/04/08 19:12:12;;;;;;;9.23;7.85;;;;;;;4.57;75.37;98577.03;8664567;32;22048;-77
2022/04/08 19:17:17;;;;;;;14.70;8.38;;;;;;;4.56;75.75;98584.16;8660575;32;20411;-76
2022/04/08 19:22:20;;;;;;;14.30;7.93;;;;;;;4.60;77.39;98582.91;8661443;32;21003;-77
2022/04/08 19:27:23;;;;;;;12.45;8.65;;;;;;;4.61;76.83;98584.63;8661110;32;20982;-76
2022/04/08 19:32:28;;;;;;;11.93;7.93;;;;;;;4.37;73.67;98589.34;8659775;32;20407;-76
2022/04/08 19:37:31;;;;;;;13.48;8.13;;;;;;;4.51;75.24;98586.38;8661239;32;21521;-76
2022/04/08 19:42:34;;;;;;;12.30;8.40;;;;;;;4.44;75.24;98603.78;8661927;32;20642;-76
2022/04/08 19:47:41;;;;;;;12.52;8.25;;;;;;;4.35;74.56;98596.59;8639007;32;20178;-77
2022/04/08 19:52:44;;;;;;;6.88;6.18;;;;;;;4.36;73.93;98592.97;8624133;33;20263;-76
2022/04/08 19:57:47;;;;;;;10.80;5.72;;;;;;;4.22;73.41;98594.13;8630724;32;20246;-76
2022/04/08 20:02:52;;;;;;;6.82;4.55;;;;;;;4.19;74.26;98591.72;8628922;32;20421;-76
2022/04/08 20:07:58;;;;;;;8.50;5.05;;;;;;;4.13;74.44;98586.91;8633625;32;20272;-76
2022/04/08 20:13:01;;;;;;;8.43;4.55;;;;;;;4.12;73.36;98591.38;8618725;32;20443;-76
2022/04/08 20:18:07;;;;;;;5.80;3.97;;;;;;;4.09;74.49;98599.63;8625564;32;21987;-76
2022/04/08 20:23:10;;;;;;;4.25;3.55;;;;;;;4.02;73.32;98595.78;8640788;32;20186;-75
2022/04/08 20:28:13;;;;;;;6.43;4.20;;;;;;;3.83;72.30;98600.91;8622239;32;20535;-75
2022/04/08 20:33:18;;;;;;;7.80;3.55;;;;;;;3.91;72.55;98598.47;8649945;32;20435;-76
2022/04/08 20:38:21;;;;;;;4.25;3.67;;;;;;;4.07;73.98;98598.06;8599068;33;20197;-75
2022/04/08 20:43:24;;;;;;;5.63;3.58;;;;;;;3.82;73.11;98588.59;8599197;33;20170;-76
2022/04/08 20:48:28;;;;;;;7.03;3.58;;;;;;;3.89;72.41;98595.91;8628157;32;20315;-75
2022/04/08 20:53:32;;;;;;;7.93;3.95;;;;;;;3.85;71.39;98597.16;8651661;32;20504;-76
2022/04/08 20:58:37;;;;;;;6.50;3.30;;;;;;;4.08;73.97;98594.41;8619536;32;20170;-75
2022/04/08 21:03:42;;;;;;;4.57;3.08;;;;;;;3.58;71.35;98594.91;8583709;32;21566;-75
2022/04/08 21:08:46;;;;;;;5.38;3.10;;;;;;;3.87;71.91;98599.69;8618003;32;20633;-75
2022/04/08 21:13:49;;;;;;;5.30;2.80;;;;;;;3.74;70.94;98605.16;8631798;32;20478;-75
2022/04/08 21:18:57;;;;;;;4.38;2.65;;;;;;;3.80;70.43;98596.69;8611976;32;20423;-75
2022/04/08 21:24:00;;;;;;;6.53;2.88;;;;;;;3.88;70.86;98601.38;8613820;32;20308;-76
2022/04/08 21:29:04;;;;;;;4.22;3.03;;;;;;;3.60;70.63;98608.09;8586000;33;20765;-76
2022/04/08 21:34:09;;;;;;;5.60;2.75;;;;;;;3.67;69.95;98614.56;8597909;33;20471;-74
2022/04/08 21:39:12;;;;;;;3.70;2.60;;;;;;;3.49;70.60;98620.41;8603339;33;20220;-75
2022/04/08 21:44:15;;;;;;;5.25;3.00;;;;;;;3.46;70.08;98619.81;8605074;33;20205;-74
2022/04/08 21:49:19;;;;;;;5.70;2.90;;;;;;;3.33;70.21;98635.00;8605226;33;20240;-77
2022/04/08 21:54:22;;;;;;;5.68;2.70;;;;;;;3.32;71.21;98660.72;8608671;33;20422;-75
2022/04/08 21:59:27;;;;;;;7.85;2.78;;;;;;;3.11;71.23;98671.19;8606985;33;20495;-75
2022/04/08 22:04:32;;;;;;;7.20;3.20;;;;;;;3.00;71.74;98666.69;8604669;33;20416;-75
2022/04/08 22:09:35;;;;;;;6.43;3.95;;;;;;;3.10;71.56;98672.16;8604645;33;20140;-75
2022/04/08 22:14:38;;;;;;;5.30;3.55;;;;;;;2.90;71.81;98689.56;8603759;33;20258;-74
2022/04/08 22:19:42;;;;;;;5.00;3.03;;;;;;;2.99;72.10;98686.25;8602593;33;20190;-75
2022/04/08 22:24:45;;;;;;;6.90;2.95;;;;;;;2.90;72.04;98700.19;8603974;33;20412;-75
2022/04/08 22:29:49;;;;;;;9.15;2.78;;;;;;;2.97;71.62;98713.84;8604123;33;20712;-75
2022/04/08 22:34:53;;;;;;;6.70;3.25;;;;;;;2.92;72.23;98706.22;8605254;33;20163;-75
2022/04/08 22:39:56;;;;;;;7.63;3.30;;;;;;;2.96;72.65;98715.66;8600533;33;20436;-75
2022/04/08 22:45:00;;;;;;;4.72;3.00;;;;;;;2.65;73.22;98718.91;8627400;33;20984;-74
2022/04/08 22:50:08;;;;;;;5.63;2.55;;;;;;;2.75;72.76;98741.97;8619683;33;20592;-75
2022/04/08 22:55:11;;;;;;;6.45;2.85;;;;;;;2.59;73.92;98757.34;8616086;33;20522;-74
2022/04/08 23:00:16;;;;;;;8.88;2.70;;;;;;;2.68;73.57;98766.41;8625880;33;20424;-74
2022/04/08 23:05:20;;;;;;;5.82;2.90;;;;;;;2.77;73.45;98774.53;8601754;33;20135;-75
2022/04/08 23:10:23;;;;;;;10.18;3.30;;;;;;;2.47;74.03;98782.03;8597206;33;20434;-75
2022/04/08 23:15:26;;;;;;;8.00;3.58;;;;;;;2.45;74.32;98786.63;8598312;33;20343;-75
2022/04/08 23:20:31;;;;;;;6.95;2.50;;;;;;;2.62;74.28;98794.22;8598204;33;20408;-75
2022/04/08 23:25:34;;;;;;;8.88;3.20;;;;;;;2.44;75.35;98799.03;8599337;33;20204;-76
2022/04/08 23:30:37;;;;;;;5.82;2.90;;;;;;;2.27;75.29;98802.03;8600696;33;20201;-75
2022/04/08 23:35:42;;;;;;;6.70;2.78;;;;;;;2.58;74.74;98813.97;8601126;33;21718;-76
2022/04/08 23:40:46;;;;;;;11.35;4.18;;;;;;;2.45;75.24;98826.38;8622125;33;20490;-76
2022/04/08 23:45:49;;;;;;;4.13;2.22;;;;;;;2.50;75.54;98827.75;8596194;33;20186;-76
2022/04/08 23:50:53;;;;;;;5.60;2.85;;;;;;;2.44;75.77;98843.22;8597980;33;20218;-74
2022/04/08 23:55:57;;;;;;;6.60;3.00;;;;;;;2.41;76.06;98833.69;8601090;33;20415;-75
